Time;durP1;ratioP1;P1;durP2;ratioP2;P2;SDS_P1;SDS_P2;PMS_P1;PMS_P2;Temp;Humidity;BMP_temperature;BMP_pressure;BME280_temperature;BME280_humidity;BME280_pressure;Samples;Min_cycle;Max_cycle;Signal;HPM_P1;HPM_P2
2021/03/10 00:00:29;;;;;;;13.93;9.15;;;5.80;82.20;;;;;;4973634;28;20091;-87
2021/03/10 00:02:55;;;;;;;14.85;9.30;;;5.80;82.50;;;;;;4964167;28;20046;-88
2021/03/10 00:05:20;;;;;;;14.80;8.30;;;5.80;82.60;;;;;;4972293;28;20046;-89
2021/03/10 00:07:46;;;;;;;21.17;10.45;;;5.80;82.70;;;;;;4974718;28;20070;-88
2021/03/10 00:10:12;;;;;;;14.00;8.70;;;5.80;82.60;;;;;;4958149;28;20073;-89
2021/03/10 00:12:38;;;;;;;13.88;9.45;;;5.80;82.60;;;;;;4965683;28;20196;-88
2021/03/10 00:15:06;;;;;;;16.88;9.63;;;5.90;82.90;;;;;;4957808;28;20301;-87
2021/03/10 00:17:32;;;;;;;17.13;8.98;;;5.80;83.20;;;;;;4976523;28;20321;-88
2021/03/10 00:19:57;;;;;;;14.95;8.77;;;5.80;83.30;;;;;;4967824;28;20050;-87
2021/03/10 00:22:23;;;;;;;14.02;9.40;;;5.80;83.30;;;;;;4959994;28;20043;-88
2021/03/10 00:24:48;;;;;;;14.07;7.85;;;5.80;83.70;;;;;;5043686;28;20043;-89
2021/03/10 00:27:23;;;;;;;14.30;9.48;;;5.80;83.60;;;;;;5041719;28;20169;-89
2021/03/10 00:29:50;;;;;;;15.88;8.85;;;5.80;83.80;;;;;;4938974;28;20043;-89
2021/03/10 00:32:16;;;;;;;12.20;8.60;;;5.80;84.00;;;;;;4968549;28;20041;-88
2021/03/10 00:34:41;;;;;;;15.57;8.43;;;5.80;84.00;;;;;;4958253;28;20039;-88
2021/03/10 00:37:07;;;;;;;14.52;9.23;;;5.80;83.90;;;;;;4983002;28;20107;-88
2021/03/10 00:39:32;;;;;;;14.70;9.18;;;5.80;83.80;;;;;;4993562;28;20046;-88
2021/03/10 00:41:57;;;;;;;21.27;8.45;;;5.80;83.80;;;;;;4969653;28;20133;-88
2021/03/10 00:44:23;;;;;;;21.10;9.15;;;5.80;84.00;;;;;;4962084;28;20038;-87
2021/03/10 00:46:48;;;;;;;17.60;9.30;;;5.80;84.40;;;;;;4974946;28;20400;-88
2021/03/10 00:49:14;;;;;;;15.38;9.27;;;5.80;84.40;;;;;;4966586;28;20045;-88
2021/03/10 00:51:39;;;;;;;17.33;9.10;;;5.70;84.60;;;;;;4968015;28;20053;-88
2021/03/10 00:54:05;;;;;;;17.98;10.38;;;5.70;84.90;;;;;;4986255;28;20039;-88
2021/03/10 00:56:30;;;;;;;16.50;9.73;;;5.70;85.10;;;;;;5040471;28;20355;-88
2021/03/10 00:58:56;;;;;;;15.90;9.88;;;5.60;85.30;;;;;;4961435;28;20697;-88
2021/03/10 01:01:21;;;;;;;16.27;8.90;;;5.60;85.40;;;;;;4972317;28;20038;-88
2021/03/10 01:03:47;;;;;;;16.77;8.98;;;5.60;85.40;;;;;;4961770;28;20269;-86
2021/03/10 01:06:12;;;;;;;14.25;8.90;;;5.60;85.50;;;;;;4972372;28;20298;-87
2021/03/10 01:08:38;;;;;;;17.83;9.57;;;5.60;85.60;;;;;;4965363;28;20038;-87
2021/03/10 01:11:03;;;;;;;18.65;10.90;;;5.60;85.60;;;;;;4960331;28;20129;-88
2021/03/10 01:13:29;;;;;;;16.20;9.93;;;5.60;85.80;;;;;;4973181;28;20038;-88
2021/03/10 01:15:54;;;;;;;16.25;10.00;;;5.60;85.80;;;;;;4985099;28;20042;-88
2021/03/10 01:18:20;;;;;;;16.48;9.43;;;5.50;86.00;;;;;;4975083;28;20416;-88
2021/03/10 01:20:46;;;;;;;20.45;10.48;;;5.50;86.20;;;;;;4969034;28;20031;-87
2021/03/10 01:23:11;;;;;;;19.02;10.63;;;5.50;86.20;;;;;;4961573;28;20039;-88
2021/03/10 01:25:37;;;;;;;20.50;10.52;;;5.50;86.30;;;;;;5061734;28;20054;-87
2021/03/10 01:28:03;;;;;;;16.02;9.55;;;5.40;86.40;;;;;;4992685;28;20038;-89
2021/03/10 01:30:28;;;;;;;18.55;10.43;;;5.40;86.60;;;;;;4973234;28;20348;-87
2021/03/10 01:32:56;;;;;;;17.38;9.68;;;5.40;86.70;;;;;;4966847;28;20304;-87
2021/03/10 01:35:21;;;;;;;20.15;9.95;;;5.40;86.80;;;;;;4961512;28;20043;-88
2021/03/10 01:37:47;;;;;;;20.50;9.57;;;5.40;86.90;;;;;;4973518;28;20042;-88
2021/03/10 01:40:15;;;;;;;19.98;10.32;;;5.30;86.90;;;;;;4977189;28;20070;-87
2021/03/10 01:42:41;;;;;;;17.30;9.88;;;5.30;86.90;;;;;;4973496;28;20039;-88
2021/03/10 01:45:07;;;;;;;18.27;10.20;;;5.30;87.20;;;;;;4987992;28;20046;-89
2021/03/10 01:47:34;;;;;;;19.02;10.60;;;5.30;87.20;;;;;;4994300;28;20039;-88
2021/03/10 01:50:01;;;;;;;20.15;11.23;;;5.30;87.20;;;;;;4977058;28;20087;-88
2021/03/10 01:52:26;;;;;;;20.25;10.20;;;5.30;87.20;;;;;;4989918;28;20049;-88
2021/03/10 01:54:52;;;;;;;20.92;10.85;;;5.30;87.20;;;;;;5007542;28;20363;-87
2021/03/10 01:57:18;;;;;;;20.02;10.60;;;5.20;87.40;;;;;;4975700;28;20043;-88
2021/03/10 01:59:43;;;;;;;21.67;11.50;;;5.20;87.40;;;;;;4968667;28;20070;-88
2021/03/10 02:02:09;;;;;;;19.02;10.40;;;5.20;87.50;;;;;;4974830;28;20056;-87
2021/03/10 02:04:39;;;;;;;17.17;10.25;;;5.20;87.60;;;;;;5002416;28;20054;-88
2021/03/10 02:07:29;;;;;;;20.45;10.95;;;5.20;87.70;;;;;;5011995;28;20355;-86
2021/03/10 02:10:19;;;;;;;18.50;11.68;;;5.20;87.80;;;;;;5011215;28;20049;-88
2021/03/10 02:13:11;;;;;;;20.60;10.63;;;5.10;87.60;;;;;;4987151;28;20046;-88
2021/03/10 02:15:59;;;;;;;20.53;10.43;;;5.10;87.80;;;;;;4974719;28;20034;-89
2021/03/10 02:19:02;;;;;;;19.92;10.45;;;5.00;87.80;;;;;;5053554;28;20054;-87
2021/03/10 02:21:46;;;;;;;18.13;10.98;;;5.00;87.70;;;;;;5059259;28;20320;-87
2021/03/10 02:24:33;;;;;;;18.77;10.73;;;5.00;87.70;;;;;;5046357;28;20062;-87
2021/03/10 02:27:15;;;;;;;21.65;12.82;;;4.90;87.90;;;;;;4988331;28;20069;-87
2021/03/10 02:29:41;;;;;;;19.98;10.93;;;4.80;88.10;;;;;;4976219;28;20039;-87
2021/03/10 02:32:07;;;;;;;16.35;10.30;;;4.80;88.10;;;;;;4972279;28;20666;-87
2021/03/10 02:34:34;;;;;;;20.35;10.75;;;4.80;88.60;;;;;;4985073;28;20416;-88
2021/03/10 02:37:01;;;;;;;23.65;13.13;;;4.70;88.00;;;;;;4986535;28;20039;-86
2021/03/10 02:39:27;;;;;;;21.65;11.25;;;4.70;88.00;;;;;;4969789;28;20123;-86
2021/03/10 02:41:53;;;;;;;18.75;11.23;;;4.60;88.00;;;;;;4969184;28;20107;-87
2021/03/10 02:44:22;;;;;;;20.95;12.50;;;4.60;88.60;;;;;;4975614;28;20039;-88
2021/03/10 02:46:47;;;;;;;22.92;11.00;;;4.60;88.20;;;;;;4956246;28;20042;-87
2021/03/10 02:49:14;;;;;;;24.85;12.65;;;4.50;88.30;;;;;;4977424;28;20030;-88
2021/03/10 02:51:41;;;;;;;21.83;11.70;;;4.50;88.80;;;;;;4960794;28;20046;-86
2021/03/10 02:54:07;;;;;;;23.08;12.55;;;4.40;89.00;;;;;;4966526;28;20425;-87
2021/03/10 02:56:32;;;;;;;20.42;10.70;;;4.40;89.30;;;;;;4977370;28;20080;-88
2021/03/10 02:58:59;;;;;;;19.92;11.20;;;4.40;89.60;;;;;;4993143;28;20167;-87
2021/03/10 03:01:25;;;;;;;23.52;12.05;;;4.30;89.70;;;;;;5002188;28;20347;-87
2021/03/10 03:03:50;;;;;;;24.00;12.20;;;4.30;90.00;;;;;;4959097;28;20034;-87
2021/03/10 03:06:16;;;;;;;22.25;12.10;;;4.30;90.10;;;;;;4972704;28;20038;-88
2021/03/10 03:08:42;;;;;;;21.85;12.75;;;4.30;90.30;;;;;;4977678;28;20191;-88
2021/03/10 03:11:07;;;;;;;24.92;14.38;;;4.30;90.30;;;;;;4977122;28;20308;-88
2021/03/10 03:13:34;;;;;;;25.92;13.38;;;4.30;90.40;;;;;;4968188;28;20123;-87
2021/03/10 03:16:04;;;;;;;21.85;12.52;;;4.40;90.40;;;;;;5002412;28;20070;-88
2021/03/10 03:18:30;;;;;;;26.33;12.48;;;4.40;90.50;;;;;;4960309;28;20476;-87
2021/03/10 03:20:59;;;;;;;21.20;11.52;;;4.40;90.50;;;;;;4989006;28;20156;-88
2021/03/10 03:23:25;;;;;;;25.98;12.98;;;4.40;90.50;;;;;;4978099;28;20045;-88
2021/03/10 03:25:51;;;;;;;21.55;12.70;;;4.50;90.50;;;;;;4977312;28;20308;-87
2021/03/10 03:28:19;;;;;;;26.20;14.02;;;4.50;90.40;;;;;;4977468;28;20046;-87
2021/03/10 03:30:47;;;;;;;23.73;12.70;;;4.50;90.40;;;;;;4965450;28;20038;-88
2021/03/10 03:33:18;;;;;;;23.85;13.25;;;4.50;90.30;;;;;;4967732;28;20038;-88
2021/03/10 03:35:49;;;;;;;19.75;12.10;;;4.50;90.30;;;;;;4995027;28;20393;-86
2021/03/10 03:38:15;;;;;;;21.30;11.68;;;4.60;90.30;;;;;;4982343;28;20053;-88
2021/03/10 03:40:41;;;;;;;23.45;12.95;;;4.60;90.30;;;;;;4994920;28;20068;-87
2021/03/10 03:43:08;;;;;;;25.05;12.98;;;4.60;90.30;;;;;;4982791;28;20057;-88
2021/03/10 03:45:34;;;;;;;22.45;12.23;;;4.60;90.20;;;;;;4976943;28;20095;-86
2021/03/10 03:48:00;;;;;;;25.63;13.02;;;4.60;90.20;;;;;;4960398;28;20068;-87
2021/03/10 03:50:27;;;;;;;24.60;12.98;;;4.70;90.20;;;;;;5046219;28;20233;-86
2021/03/10 03:52:53;;;;;;;24.15;12.95;;;4.60;90.10;;;;;;4955075;28;20060;-88
2021/03/10 03:55:19;;;;;;;24.33;14.48;;;4.70;90.20;;;;;;4982706;28;20385;-88
2021/03/10 03:57:45;;;;;;;25.63;13.52;;;4.60;90.20;;;;;;5024527;28;20208;-88
2021/03/10 04:00:15;;;;;;;24.23;14.35;;;4.60;90.10;;;;;;4987312;28;20117;-87
2021/03/10 04:02:41;;;;;;;23.73;13.20;;;4.70;90.10;;;;;;4982144;28;20355;-88
2021/03/10 04:05:07;;;;;;;26.13;14.88;;;4.70;90.10;;;;;;4974819;28;20038;-87
2021/03/10 04:07:33;;;;;;;24.27;13.55;;;4.70;90.00;;;;;;4962877;28;20137;-87
2021/03/10 04:09:59;;;;;;;25.98;13.68;;;4.70;90.00;;;;;;4983251;28;20353;-87
2021/03/10 04:12:24;;;;;;;22.70;14.15;;;4.70;90.00;;;;;;5005794;28;20066;-87
2021/03/10 04:14:50;;;;;;;27.90;15.48;;;4.70;90.00;;;;;;4989703;28;20031;-86
2021/03/10 04:17:15;;;;;;;27.33;15.32;;;4.70;90.20;;;;;;4994126;28;20038;-88
2021/03/10 04:19:42;;;;;;;25.08;15.30;;;4.70;90.20;;;;;;5000919;28;20038;-88
2021/03/10 04:22:07;;;;;;;24.27;13.85;;;4.70;90.20;;;;;;4992332;28;20115;-87
2021/03/10 04:24:33;;;;;;;22.50;13.45;;;4.70;90.20;;;;;;4979542;28;20042;-88
2021/03/10 04:26:59;;;;;;;29.88;16.10;;;4.70;90.20;;;;;;5054520;28;20050;-87
2021/03/10 04:29:24;;;;;;;34.88;15.43;;;4.70;90.30;;;;;;4972194;28;20041;-87
2021/03/10 04:31:50;;;;;;;27.00;14.70;;;4.70;90.30;;;;;;4988881;28;20309;-86
2021/03/10 04:34:15;;;;;;;27.20;14.75;;;4.70;90.30;;;;;;4980909;28;20085;-88
2021/03/10 04:36:41;;;;;;;29.50;16.92;;;4.70;90.30;;;;;;4957872;28;20450;-88
2021/03/10 04:39:06;;;;;;;26.35;14.45;;;4.70;90.30;;;;;;4979014;28;20043;-88
2021/03/10 04:41:32;;;;;;;27.67;14.48;;;4.70;90.30;;;;;;4974478;28;20400;-88
2021/03/10 04:43:58;;;;;;;27.73;15.45;;;4.80;90.20;;;;;;4983048;28;20160;-88
2021/03/10 04:46:23;;;;;;;27.52;15.80;;;4.80;90.20;;;;;;4999651;28;20039;-88
2021/03/10 04:48:48;;;;;;;29.42;16.08;;;4.80;90.20;;;;;;5016901;28;20083;-86
2021/03/10 04:51:14;;;;;;;25.83;15.25;;;4.70;90.40;;;;;;5074773;28;20432;-87
2021/03/10 04:53:39;;;;;;;30.05;15.77;;;4.70;90.50;;;;;;5057752;28;20431;-88
2021/03/10 04:56:05;;;;;;;29.52;15.30;;;4.70;90.50;;;;;;5069637;28;20036;-88
2021/03/10 04:58:31;;;;;;;27.10;14.77;;;4.60;90.60;;;;;;4997978;28;20048;-87
2021/03/10 05:00:56;;;;;;;28.38;15.88;;;4.60;90.60;;;;;;5031541;28;20048;-88
2021/03/10 05:03:22;;;;;;;25.77;14.18;;;4.60;90.60;;;;;;5078955;28;20052;-87
2021/03/10 05:05:47;;;;;;;25.05;14.77;;;4.70;90.50;;;;;;5042293;28;20038;-87
2021/03/10 05:08:13;;;;;;;33.47;15.52;;;4.70;90.40;;;;;;5018813;28;20512;-88
2021/03/10 05:10:38;;;;;;;26.55;15.27;;;4.70;90.40;;;;;;5062139;28;20035;-87
2021/03/10 05:13:04;;;;;;;25.75;15.18;;;4.80;90.30;;;;;;4982957;28;20039;-87
2021/03/10 05:15:29;;;;;;;27.10;15.32;;;4.80;90.20;;;;;;4985163;28;20407;-88
2021/03/10 05:17:55;;;;;;;26.35;15.43;;;4.80;90.20;;;;;;4971885;28;20308;-87
2021/03/10 05:20:20;;;;;;;27.50;15.07;;;4.80;90.10;;;;;;4964316;28;20354;-89
2021/03/10 05:22:46;;;;;;;26.98;15.73;;;4.80;90.10;;;;;;4970495;28;20038;-88
2021/03/10 05:25:12;;;;;;;26.48;15.30;;;4.90;90.00;;;;;;4956169;28;20051;-88
2021/03/10 05:27:38;;;;;;;31.23;15.82;;;4.90;90.10;;;;;;5044543;28;20039;-88
2021/03/10 05:30:06;;;;;;;26.15;13.60;;;4.90;90.00;;;;;;4961907;28;20069;-88
2021/03/10 05:32:32;;;;;;;31.90;15.27;;;4.90;89.90;;;;;;4963010;28;20038;-88
2021/03/10 05:34:58;;;;;;;25.77;14.73;;;4.90;89.90;;;;;;4965418;28;20049;-87
2021/03/10 05:37:23;;;;;;;27.60;14.75;;;4.90;89.80;;;;;;4969934;28;20077;-87
2021/03/10 05:39:49;;;;;;;23.83;15.40;;;4.90;89.90;;;;;;4979608;28;20439;-88
2021/03/10 05:42:14;;;;;;;31.20;14.30;;;4.90;89.90;;;;;;4962897;28;20058;-88
2021/03/10 05:44:40;;;;;;;27.42;14.70;;;4.90;90.00;;;;;;4991478;28;20103;-88
2021/03/10 05:47:07;;;;;;;26.73;14.30;;;4.90;90.00;;;;;;4978248;28;20043;-88
2021/03/10 05:49:32;;;;;;;28.70;15.23;;;4.80;90.00;;;;;;4976471;28;20053;-89
2021/03/10 05:52:00;;;;;;;28.55;15.60;;;4.90;89.80;;;;;;4976626;28;20038;-87
2021/03/10 05:54:29;;;;;;;25.67;14.82;;;4.80;89.90;;;;;;4993308;28;20039;-88
2021/03/10 05:56:55;;;;;;;27.80;15.02;;;4.80;90.00;;;;;;4987243;28;20047;-87
2021/03/10 05:59:21;;;;;;;23.52;13.85;;;4.70;90.00;;;;;;4959938;28;20074;-87
2021/03/10 06:01:46;;;;;;;26.17;14.88;;;4.60;90.20;;;;;;4996878;28;20081;-87
2021/03/10 06:04:12;;;;;;;24.45;15.13;;;4.60;90.30;;;;;;5004832;28;20358;-87
2021/03/10 06:06:39;;;;;;;30.30;15.63;;;4.50;90.30;;;;;;4971553;28;20038;-87
2021/03/10 06:09:12;;;;;;;28.33;15.80;;;4.50;90.30;;;;;;4988950;28;20404;-87
2021/03/10 06:11:37;;;;;;;33.17;16.40;;;4.60;90.40;;;;;;4977168;28;20116;-87
2021/03/10 06:14:14;;;;;;;29.05;16.35;;;4.60;90.40;;;;;;4982997;28;20043;-87
2021/03/10 06:16:39;;;;;;;31.58;17.17;;;4.60;90.40;;;;;;5072871;28;20088;-88
2021/03/10 06:19:05;;;;;;;31.58;18.92;;;4.60;90.40;;;;;;4985804;28;20042;-86
2021/03/10 06:21:31;;;;;;;31.77;16.48;;;4.70;90.40;;;;;;4966882;28;20070;-87
2021/03/10 06:24:00;;;;;;;27.35;15.23;;;4.70;90.40;;;;;;4987762;28;20110;-87
2021/03/10 06:26:31;;;;;;;28.55;15.23;;;4.70;90.30;;;;;;4957463;28;20362;-86
2021/03/10 06:28:59;;;;;;;28.85;14.68;;;4.80;90.30;;;;;;4976147;28;21632;-88
2021/03/10 06:31:29;;;;;;;25.25;14.13;;;4.80;90.30;;;;;;4973818;28;20126;-87
2021/03/10 06:34:02;;;;;;;24.85;14.65;;;4.90;90.30;;;;;;4966224;28;20035;-87
2021/03/10 06:36:29;;;;;;;29.33;15.57;;;4.90;90.20;;;;;;4978714;28;20031;-87
2021/03/10 06:38:55;;;;;;;26.75;15.77;;;4.90;90.20;;;;;;4971057;28;20045;-87
2021/03/10 06:41:32;;;;;;;28.48;15.10;;;5.00;90.20;;;;;;4988166;28;20038;-86
2021/03/10 06:43:58;;;;;;;24.33;14.25;;;5.00;90.10;;;;;;4969382;28;20038;-87
2021/03/10 06:46:26;;;;;;;30.42;16.27;;;5.00;90.00;;;;;;4976723;28;20045;-87
2021/03/10 06:48:59;;;;;;;27.45;14.52;;;5.10;90.00;;;;;;4978218;28;20360;-87
2021/03/10 06:51:26;;;;;;;31.00;16.20;;;5.10;90.00;;;;;;4981899;28;20195;-88
2021/03/10 06:53:52;;;;;;;26.55;15.40;;;5.20;90.00;;;;;;5022541;28;20539;-87
2021/03/10 06:56:27;;;;;;;29.35;14.98;;;5.20;89.80;;;;;;4974883;28;20038;-87
2021/03/10 06:59:04;;;;;;;26.05;14.90;;;5.20;89.90;;;;;;4974259;28;20125;-88
2021/03/10 07:01:40;;;;;;;31.48;14.75;;;5.20;89.80;;;;;;4973644;28;20413;-87
2021/03/10 07:04:08;;;;;;;28.30;14.45;;;5.20;89.80;;;;;;4957046;28;20047;-87
2021/03/10 07:06:34;;;;;;;25.75;14.25;;;5.30;89.60;;;;;;4974304;28;20039;-86
2021/03/10 07:09:04;;;;;;;31.95;16.05;;;5.30;89.50;;;;;;4971103;28;20392;-87
2021/03/10 07:11:30;;;;;;;27.17;15.45;;;5.40;90.00;;;;;;5004668;28;20419;-88
2021/03/10 07:13:56;;;;;;;25.67;14.00;;;5.40;89.30;;;;;;4978615;28;20042;-86
2021/03/10 07:16:22;;;;;;;26.27;14.65;;;5.50;89.00;;;;;;4972362;28;20053;-87
2021/03/10 07:18:48;;;;;;;24.42;14.57;;;5.60;89.00;;;;;;4968615;28;20084;-87
2021/03/10 07:21:22;;;;;;;24.30;13.52;;;5.60;88.90;;;;;;4983954;28;20043;-86
2021/03/10 07:23:51;;;;;;;25.48;13.90;;;5.60;88.50;;;;;;4990565;28;20131;-87
2021/03/10 07:26:19;;;;;;;26.88;16.42;;;5.70;88.30;;;;;;4999657;28;20224;-86
2021/03/10 07:29:00;;;;;;;27.05;15.50;;;5.70;88.30;;;;;;5010595;28;20048;-87
2021/03/10 07:31:26;;;;;;;27.88;14.35;;;5.70;88.30;;;;;;5075032;28;20043;-87
2021/03/10 07:33:56;;;;;;;27.90;15.68;;;5.70;88.70;;;;;;5075467;28;20425;-87
2021/03/10 07:36:37;;;;;;;28.58;15.07;;;5.80;88.10;;;;;;4990286;28;20035;-87
2021/03/10 07:39:04;;;;;;;21.90;13.27;;;5.80;88.00;;;;;;4967841;28;20038;-87
2021/03/10 07:41:38;;;;;;;25.02;15.25;;;5.80;88.00;;;;;;4964875;28;20092;-85
2021/03/10 07:44:24;;;;;;;24.08;13.57;;;5.80;88.00;;;;;;4981973;28;20117;-86
2021/03/10 07:47:07;;;;;;;25.83;14.05;;;5.80;88.00;;;;;;4958877;28;20039;-87
2021/03/10 07:49:33;;;;;;;22.00;14.18;;;5.90;88.20;;;;;;4964302;28;20038;-85
2021/03/10 07:52:12;;;;;;;27.13;14.82;;;5.90;88.50;;;;;;4962928;28;20053;-86
2021/03/10 07:54:39;;;;;;;25.50;15.60;;;5.90;88.80;;;;;;4973155;28;20345;-86
2021/03/10 07:57:12;;;;;;;31.05;17.60;;;6.00;89.00;;;;;;5043041;28;20059;-86
2021/03/10 07:59:40;;;;;;;25.67;15.18;;;6.10;88.60;;;;;;5058396;28;20041;-86
2021/03/10 08:02:07;;;;;;;25.65;15.27;;;6.20;88.40;;;;;;5058559;28;20075;-85
2021/03/10 08:04:34;;;;;;;31.98;17.35;;;6.30;87.80;;;;;;5062677;28;20044;-86
2021/03/10 08:07:00;;;;;;;28.08;15.23;;;6.40;87.60;;;;;;5023368;28;20363;-86
2021/03/10 08:09:27;;;;;;;25.63;15.48;;;6.40;87.80;;;;;;5034989;28;20037;-87
2021/03/10 08:12:04;;;;;;;27.92;16.27;;;6.50;87.40;;;;;;5032770;28;20029;-85
2021/03/10 08:14:44;;;;;;;29.17;16.05;;;6.60;87.20;;;;;;5051668;28;20340;-86
2021/03/10 08:17:20;;;;;;;27.98;15.95;;;6.70;86.70;;;;;;5043873;28;20115;-86
2021/03/10 08:20:04;;;;;;;27.08;15.25;;;6.70;86.40;;;;;;5042589;28;20045;-85
2021/03/10 08:22:32;;;;;;;27.60;15.68;;;6.80;85.80;;;;;;5024965;28;20445;-86
2021/03/10 08:24:59;;;;;;;24.95;15.63;;;6.80;85.20;;;;;;5053318;28;20045;-87
2021/03/10 08:27:31;;;;;;;26.80;14.60;;;6.90;85.60;;;;;;5067346;28;20263;-89
2021/03/10 08:29:57;;;;;;;21.02;11.13;;;7.00;85.60;;;;;;5072887;28;20036;-88
2021/03/10 08:32:30;;;;;;;28.05;16.27;;;7.10;85.00;;;;;;5055241;28;20040;-87
2021/03/10 08:35:20;;;;;;;29.33;16.30;;;7.20;84.60;;;;;;5056769;28;20094;-88
2021/03/10 08:37:57;;;;;;;26.90;15.55;;;7.20;85.50;;;;;;5044471;28;20044;-88
2021/03/10 08:40:25;;;;;;;24.08;15.10;;;7.30;84.60;;;;;;5039420;28;20199;-86
2021/03/10 08:42:58;;;;;;;29.98;16.23;;;7.30;84.40;;;;;;5051892;28;20040;-87
2021/03/10 08:45:28;;;;;;;27.70;16.27;;;7.40;83.40;;;;;;5049490;28;20090;-87
2021/03/10 08:48:05;;;;;;;24.75;14.95;;;7.40;83.70;;;;;;5049124;28;20467;-87
2021/03/10 08:50:35;;;;;;;34.08;15.30;;;7.50;83.70;;;;;;5059749;28;20099;-87
2021/03/10 08:53:02;;;;;;;25.42;14.65;;;7.50;83.30;;;;;;5069891;28;20287;-87
2021/03/10 08:55:27;;;;;;;25.52;14.98;;;7.50;83.60;;;;;;5038447;28;20120;-86
2021/03/10 08:57:54;;;;;;;25.05;14.38;;;7.60;83.60;;;;;;4970276;28;20676;-88
2021/03/10 09:00:22;;;;;;;24.65;15.25;;;7.60;83.10;;;;;;4968975;28;20046;-86
2021/03/10 09:02:49;;;;;;;24.77;14.15;;;7.70;81.80;;;;;;4976671;28;20088;-87
2021/03/10 09:05:16;;;;;;;23.77;14.52;;;7.70;83.80;;;;;;4955557;28;20416;-88
2021/03/10 09:07:42;;;;;;;22.38;15.88;;;7.80;83.10;;;;;;4972210;28;20483;-86
2021/03/10 09:10:10;;;;;;;22.90;15.32;;;7.90;82.60;;;;;;4990481;28;20035;-87
2021/03/10 09:12:43;;;;;;;26.27;15.52;;;8.00;82.90;;;;;;4952649;28;20418;-86
2021/03/10 09:15:11;;;;;;;26.17;16.63;;;8.10;81.80;;;;;;4947978;28;20447;-87
2021/03/10 09:17:36;;;;;;;28.10;17.20;;;8.20;82.30;;;;;;4972939;28;20042;-86
2021/03/10 09:20:05;;;;;;;21.45;14.30;;;8.30;80.30;;;;;;4956714;28;20466;-86
2021/03/10 09:22:31;;;;;;;28.13;16.42;;;8.40;80.40;;;;;;4952668;28;20794;-87
2021/03/10 09:25:29;;;;;;;25.48;15.43;;;8.50;80.90;;;;;;4985191;28;20053;-87
2021/03/10 09:28:11;;;;;;;25.52;16.00;;;8.60;79.80;;;;;;4965853;28;20057;-86
2021/03/10 09:30:38;;;;;;;24.40;15.50;;;8.60;78.80;;;;;;4959770;28;20034;-86
2021/03/10 09:33:05;;;;;;;23.90;14.90;;;8.70;78.30;;;;;;4971579;28;20065;-86
2021/03/10 09:35:36;;;;;;;23.63;14.75;;;8.70;79.00;;;;;;4973899;28;20431;-86
2021/03/10 09:38:04;;;;;;;27.35;17.30;;;8.80;78.80;;;;;;4947404;28;20156;-87
2021/03/10 09:40:41;;;;;;;24.73;15.55;;;8.80;77.80;;;;;;4957681;28;20051;-87
2021/03/10 09:43:10;;;;;;;28.60;15.18;;;8.80;77.10;;;;;;4958151;28;20042;-86
2021/03/10 09:45:38;;;;;;;23.10;14.38;;;8.80;78.20;;;;;;4978872;28;20372;-86
2021/03/10 09:48:06;;;;;;;24.95;14.95;;;8.80;78.70;;;;;;4953099;28;20043;-86
2021/03/10 09:50:40;;;;;;;22.65;14.50;;;8.80;78.00;;;;;;4976037;28;20095;-87
2021/03/10 09:53:15;;;;;;;22.70;14.77;;;8.80;78.30;;;;;;4974412;28;20038;-87
2021/03/10 09:55:41;;;;;;;23.60;15.60;;;8.80;78.00;;;;;;4980597;28;20091;-87
2021/03/10 09:58:08;;;;;;;23.73;14.90;;;8.80;77.70;;;;;;5007123;28;20051;-86
2021/03/10 10:00:36;;;;;;;20.65;13.52;;;8.90;77.50;;;;;;4980898;28;20035;-87
2021/03/10 10:03:02;;;;;;;29.38;15.52;;;9.00;78.10;;;;;;4964438;28;20046;-87
2021/03/10 10:05:33;;;;;;;21.67;14.55;;;9.00;77.70;;;;;;4976621;28;20396;-87
2021/03/10 10:08:00;;;;;;;21.42;14.13;;;9.00;77.20;;;;;;4976427;28;20058;-86
2021/03/10 10:10:25;;;;;;;22.95;14.27;;;8.90;77.40;;;;;;5000000;28;20046;-87
2021/03/10 10:12:53;;;;;;;23.00;14.40;;;8.90;77.80;;;;;;4993601;28;20412;-87
2021/03/10 10:15:21;;;;;;;22.88;14.30;;;8.80;78.00;;;;;;4957994;28;20038;-86
2021/03/10 10:17:49;;;;;;;21.23;14.13;;;8.80;78.00;;;;;;4973909;28;20080;-87
2021/03/10 10:20:17;;;;;;;23.08;13.63;;;8.70;77.00;;;;;;4957146;28;20121;-87
2021/03/10 10:22:44;;;;;;;22.77;14.57;;;8.70;77.20;;;;;;4975507;28;20601;-86
2021/03/10 10:25:12;;;;;;;21.80;13.80;;;8.60;77.20;;;;;;4974369;28;20042;-87
2021/03/10 10:27:38;;;;;;;22.67;14.57;;;8.70;78.10;;;;;;4995927;28;20423;-87
2021/03/10 10:30:04;;;;;;;22.55;13.30;;;8.70;78.20;;;;;;5078362;28;20095;-87
2021/03/10 10:32:30;;;;;;;24.20;13.70;;;8.90;76.10;;;;;;4992110;28;20034;-87
2021/03/10 10:34:55;;;;;;;20.77;12.88;;;9.00;76.20;;;;;;5009506;28;20045;-88
2021/03/10 10:37:21;;;;;;;24.60;14.23;;;9.10;75.60;;;;;;5000099;28;20084;-88
2021/03/10 10:39:47;;;;;;;17.23;11.27;;;9.30;75.90;;;;;;4964122;28;20053;-88
2021/03/10 10:42:12;;;;;;;21.23;12.82;;;9.30;75.70;;;;;;4976006;28;20122;-88
2021/03/10 10:44:38;;;;;;;20.05;12.55;;;9.50;75.90;;;;;;4988702;28;20034;-87
2021/03/10 10:47:04;;;;;;;17.75;11.98;;;9.60;74.40;;;;;;4976522;28;20042;-87
2021/03/10 10:49:30;;;;;;;22.10;12.43;;;9.70;73.20;;;;;;4984610;28;20039;-86
2021/03/10 10:51:55;;;;;;;19.08;12.15;;;9.90;72.30;;;;;;4977229;28;20100;-88
2021/03/10 10:54:22;;;;;;;18.02;12.07;;;10.10;71.60;;;;;;5050504;28;20077;-87
2021/03/10 10:56:47;;;;;;;18.25;12.23;;;10.20;70.00;;;;;;4988044;28;20050;-88
2021/03/10 10:59:13;;;;;;;20.38;12.35;;;10.20;72.00;;;;;;4975428;28;20034;-88
2021/03/10 11:01:38;;;;;;;18.90;12.48;;;10.20;71.00;;;;;;4975934;28;20396;-87
2021/03/10 11:04:04;;;;;;;18.15;11.88;;;10.30;71.90;;;;;;4976054;28;20034;-87
2021/03/10 11:06:29;;;;;;;21.85;12.93;;;10.30;69.90;;;;;;4976226;28;20049;-87
2021/03/10 11:08:55;;;;;;;19.52;13.18;;;10.40;70.60;;;;;;4968503;28;20383;-87
2021/03/10 11:11:20;;;;;;;19.05;12.65;;;10.40;69.00;;;;;;4959937;28;20035;-86
2021/03/10 11:13:46;;;;;;;17.27;11.90;;;10.40;68.60;;;;;;4958405;28;20092;-88
2021/03/10 11:16:11;;;;;;;19.13;12.32;;;10.40;67.30;;;;;;4991123;28;20038;-87
2021/03/10 11:18:37;;;;;;;20.75;12.32;;;10.30;68.90;;;;;;4991543;28;20126;-87
2021/03/10 11:21:03;;;;;;;18.63;12.00;;;10.30;68.00;;;;;;4974674;28;20300;-87
2021/03/10 11:23:28;;;;;;;18.42;12.25;;;10.30;68.10;;;;;;4973380;28;20469;-88
2021/03/10 11:25:54;;;;;;;20.05;12.90;;;10.40;68.40;;;;;;4955708;28;20039;-87
2021/03/10 11:28:19;;;;;;;20.63;13.55;;;10.40;67.60;;;;;;5052223;28;20070;-88
2021/03/10 11:30:45;;;;;;;17.40;12.70;;;10.50;68.00;;;;;;4971098;28;20045;-88
2021/03/10 11:33:10;;;;;;;20.77;12.85;;;10.50;68.30;;;;;;4960734;28;20198;-88
2021/03/10 11:35:36;;;;;;;21.30;13.55;;;10.50;68.40;;;;;;4959955;28;20506;-88
2021/03/10 11:38:01;;;;;;;20.02;13.70;;;10.50;68.40;;;;;;4958228;28;20053;-86
2021/03/10 11:40:27;;;;;;;20.85;13.18;;;10.50;69.20;;;;;;4955760;28;20423;-86
2021/03/10 11:42:52;;;;;;;25.20;14.43;;;10.40;69.40;;;;;;5048888;28;20046;-87
2021/03/10 11:45:18;;;;;;;22.25;13.77;;;10.50;69.00;;;;;;4956637;28;20077;-88
2021/03/10 11:47:44;;;;;;;20.02;12.63;;;10.60;68.70;;;;;;4958044;28;20436;-87
2021/03/10 11:50:10;;;;;;;19.55;13.25;;;10.60;67.40;;;;;;4958824;28;20130;-88
2021/03/10 11:52:36;;;;;;;20.92;13.57;;;10.60;66.80;;;;;;5065617;28;20421;-88
2021/03/10 11:55:02;;;;;;;21.20;12.82;;;10.70;67.90;;;;;;4973529;28;20053;-90
2021/03/10 11:57:27;;;;;;;24.88;13.98;;;10.70;68.60;;;;;;4955095;28;20073;-87
2021/03/10 11:59:53;;;;;;;19.20;12.30;;;10.70;68.00;;;;;;4978917;28;20391;-88
2021/03/10 12:02:18;;;;;;;19.75;12.13;;;10.70;67.80;;;;;;4978275;28;20592;-88
2021/03/10 12:04:44;;;;;;;18.83;12.40;;;10.70;67.90;;;;;;4955299;28;20039;-86
2021/03/10 12:07:10;;;;;;;17.75;12.27;;;10.60;67.20;;;;;;4955162;28;20050;-88
2021/03/10 12:09:35;;;;;;;19.90;12.52;;;10.60;66.30;;;;;;5045810;28;20052;-88
2021/03/10 12:12:01;;;;;;;19.65;12.68;;;10.70;68.10;;;;;;4988841;28;20077;-88
2021/03/10 12:14:26;;;;;;;19.88;12.63;;;10.90;67.40;;;;;;4956905;28;20041;-89
2021/03/10 12:16:52;;;;;;;17.80;12.05;;;11.00;66.80;;;;;;4974386;28;20039;-89
2021/03/10 12:19:18;;;;;;;17.23;11.85;;;11.10;65.10;;;;;;4938840;28;20050;-88
2021/03/10 12:21:44;;;;;;;18.55;11.23;;;11.20;65.20;;;;;;5044831;28;20171;-88
2021/03/10 12:24:10;;;;;;;19.17;12.35;;;11.20;64.50;;;;;;4954231;28;20321;-89
2021/03/10 12:26:36;;;;;;;19.30;12.80;;;11.20;63.20;;;;;;4953736;28;20096;-88
2021/03/10 12:29:01;;;;;;;18.83;12.40;;;11.20;63.70;;;;;;4963238;28;20046;-88
2021/03/10 12:31:28;;;;;;;19.02;12.55;;;11.30;63.30;;;;;;4984570;28;20046;-89
2021/03/10 12:33:54;;;;;;;20.60;12.98;;;11.30;63.70;;;;;;4954664;28;20133;-88
2021/03/10 12:36:19;;;;;;;18.52;11.52;;;11.30;63.60;;;;;;4966829;28;20122;-90
2021/03/10 12:38:45;;;;;;;18.10;12.20;;;11.30;63.20;;;;;;4999093;28;20054;-86